Weather observations for the past three days for
Corona Airport
Metric (Imperial)
Date Time (pdt) Wind (kph) Vis. (km) Weather Sky Cond. Temperature (ºC) Relative Humidity Wind Chill (°C) Heat Index (°C) Pressure Precipitation (cm)
Air Dwpt 6 hour altimeter (cm) sea level (mb) 1 hr 3 hr 6 hr
Max. Min.
01 15:56 Calm 16.09 Fair CLR 0 0 0% 0 0.0
01 14:56 Calm 16.09 Fair CLR 0 0 0% 76.05 0.0
01 11:56 Calm 16.09 Fair CLR 0 0 0% 76.17 0.0
01 09:56 Calm 16.09 Fair CLR 24.4 17.2 64% 25 76.23 1015.4
01 07:56 W 7 14.48 Fair CLR 18.3 16.1 87% 76.2 1015.4
01 06:56 W 6 12.87 Fair CLR 15.6 15 96% 76.15 1014.7
01 05:56 Calm 12.87 Fair CLR 13.9 12.8 93% 76.1 1014.1
01 04:56 Calm 2.82 Fog/Mist CLR 15 13.9 19.4 14.4 93% 76.1 1014.0
01 03:56 Calm 12.87 Fair CLR 16.1 15.6 97% 76.12 0.0
01 02:56 W 6 16.09 Fair CLR 17.8 16.1 90% 76.12 0.0
01 01:56 W 7 16.09 Fair CLR 18.3 16.1 87% 76.12 0.0
01 00:56 W 6 16.09 Fair CLR 18.9 16.1 84% 76.12 1014.0
31 23:56 W 7 16.09 Fair CLR 19.4 16.7 84% 76.12 1013.9
31 22:56 Calm 16.09 Fair CLR 18.9 15.6 30 18.9 81% 76.1 1013.9
31 21:56 N 6 16.09 Fair CLR 20.6 15.6 73% 76.07 1013.4
31 20:56 W 13 16.09 Fair CLR 23.3 15 60% 76 1012.5
31 18:56 W 19 G 31 16.09 Fair CLR 25.6 13.9 48% 26 75.9 1011.3
31 17:56 W 22 G 41 16.09 Fair CLR 27.8 15.6 47% 28 75.87 1010.9
31 16:56 Calm 16.09 Fair CLR 30 16.7 45% 30 0 0.0
31 15:56 Calm 16.09 Fair CLR 0 0 0% 0 0.0
31 13:56 Calm 16.09 Fair CLR 0 0 0% 0 0.0
31 12:56 Calm 16.09 Fair CLR 31.1 17.8 45% 32 0 0.0
31 11:56 Calm 16.09 Fair CLR 30 17.8 48% 31 0 0.0
31 09:56 NW 9 16.09 Fair CLR 26.1 18.3 62% 27 76.05 1013.2
31 08:56 Calm 14.48 Fair CLR 23.9 18.3 71% 25 76.07 1013.4
31 07:56 NW 6 12.87 Fair CLR 21.1 18.3 84% 76.05 1013.3
31 06:56 Calm 14.48 Fair CLR 17.8 17.2 96% 76.02 1012.8
31 05:56 Calm 11.27 Fair CLR 17.2 16.7 97% 75.97 0.0
31 04:56 Calm 11.27 Fair CLR 18.3 17.2 21.7 17.8 93% 75.97 0.0
31 03:56 Calm 12.87 Fair CLR 18.9 18.3 96% 75.97 1012.1
31 02:56 Calm 14.48 Fair CLR 20 18.3 90% 75.97 0.0
31 01:56 Calm 12.87 Fair CLR 19.4 18.3 93% 75.95 0.0
31 00:56 NW 7 14.48 Fair CLR 20 18.9 93% 76 1012.3
30 23:56 Calm 16.09 Fair CLR 21.1 18.9 87% 75.97 1012.0
30 22:56 N 7 16.09 Fair CLR 21.7 18.9 84% 75.95 1011.8
30 21:56 W 9 16.09 Fair CLR 23.3 18.3 74% 75.92 0.0
30 20:56 NW 9 16.09 Fair CLR 23.9 17.8 69% 25 75.87 1010.8
30 19:56 W 15 16.09 Fair CLR 25 18.9 69% 26 75.77 1009.5
30 18:56 W 22 G 31 16.09 Fair CLR 28.3 18.3 55% 29 75.74 1009.0
30 17:56 NW 17 16.09 NULL NULL 0 0 0% 75.77 0.0
30 15:56 Calm 0.00 NULL NULL 33.3 20.6 47% 36 0 0.0
30 12:56 W 20 G 30 16.09 Fair CLR 33.9 19.4 42% 36 75.87 1010.6
30 11:56 W 15 16.09 Fair CLR 33.3 18.9 43% 35 75.92 1011.2
30 10:56 Vrbl 6 16.09 Fair CLR 31.1 17.2 31.1 18.9 43% 32 75.95 1011.7
30 08:56 Calm 16.09 Fair CLR 26.1 19.4 67% 27 75.97 1012.1
30 07:56 W 6 14.48 Fair CLR 22.8 19.4 81% 76 1012.2
30 06:56 Calm 12.87 Fair CLR 20 18.3 90% 75.97 0.0
30 05:56 W 6 14.48 Fair CLR 20.6 18.9 90% 75.95 1011.6
30 04:56 Calm 12.87 Fair CLR 20 18.3 24.4 19.4 90% 75.9 1011.0
30 03:56 Calm 14.48 Fair CLR 21.1 18.9 87% 75.9 1011.0
30 02:56 NW 7 16.09 Fair CLR 22.2 19.4 84% 75.87 1010.6
30 01:56 Calm 16.09 Fair CLR 22.2 18.9 82% 75.87 1010.6
30 00:56 NW 7 16.09 Fair CLR 22.8 19.4 81% 75.87 1010.7
29 23:56 W 6 16.09 Fair CLR 23.9 19.4 76% 24 75.87 1010.5
29 22:56 NW 6 16.09 Fair CLR 24.4 18.9 36.1 24.4 72% 25 75.87 1010.5
29 21:56 Calm 16.09 Fair CLR 25.6 17.2 60% 27 75.84 1010.4
29 20:56 W 15 16.09 Fair CLR 27.2 16.1 51% 28 75.79 1009.7
29 19:56 W 11 16.09 Fair CLR 28.9 16.1 46% 29 75.74 1009.1
29 17:56 W 17 G 28 16.09 Fair CLR 34.4 16.1 33% 35 75.72 1008.5
29 16:56 W 22 G 35 16.09 Fair CLR 36.1 16.1 37.8 33.9 30% 36 75.69 1008.3
Date Time (pdt) Wind (kph) Vis. (km) Weather Sky Cond. Air Dwpt Max. Min. Relative Humidity Wind Chill (°C) Heat Index (°C) altimeter (cm) sea level (mb) 1 hr 3 hr 6 hr
6 hour
Temperature (ºC) Pressure Precipitation (cm)